createdAt,value
2022-11-07T00:00:33.473Z,14.13
2022-11-07T00:03:02.267Z,12.15
2022-11-07T00:05:30.881Z,13.10
2022-11-07T00:08:00.890Z,13.05
2022-11-07T00:10:29.828Z,13.68
2022-11-07T00:12:58.407Z,10.67
2022-11-07T00:15:27.119Z,9.57
2022-11-07T00:17:55.807Z,10.83
2022-11-07T00:20:24.546Z,13.23
2022-11-07T00:22:53.135Z,11.33
2022-11-07T00:25:23.110Z,11.90
2022-11-07T00:27:51.752Z,11.13
2022-11-07T00:30:21.435Z,12.48
2022-11-07T00:35:18.405Z,7.43
2022-11-07T00:37:47.054Z,12.43
2022-11-07T00:40:16.828Z,9.52
2022-11-07T00:42:47.368Z,11.05
2022-11-07T00:45:16.175Z,13.07
2022-11-07T00:47:44.795Z,11.25
2022-11-07T00:50:15.608Z,11.43
2022-11-07T00:52:44.239Z,11.05
2022-11-07T00:55:12.853Z,12.93
2022-11-07T00:57:41.507Z,12.07
2022-11-07T01:00:13.660Z,12.40
2022-11-07T01:02:42.481Z,17.15
2022-11-07T01:05:13.329Z,10.45
2022-11-07T01:07:42.099Z,11.13
2022-11-07T01:10:10.984Z,10.85
2022-11-07T01:12:39.654Z,10.95
2022-11-07T01:15:09.136Z,10.90
2022-11-07T01:17:39.107Z,9.43
2022-11-07T01:20:14.941Z,12.05
2022-11-07T01:22:43.606Z,12.40
2022-11-07T01:25:12.174Z,13.60
2022-11-07T01:27:40.961Z,10.10
2022-11-07T01:30:10.856Z,11.52
2022-11-07T01:32:40.837Z,10.05
2022-11-07T01:35:10.231Z,8.80
2022-11-07T01:37:38.762Z,9.05
2022-11-07T01:40:08.568Z,11.93
2022-11-07T01:42:37.385Z,11.27
2022-11-07T01:45:06.915Z,12.00
2022-11-07T01:47:39.692Z,12.73
2022-11-07T01:50:10.282Z,11.30
2022-11-07T01:52:43.203Z,13.98
2022-11-07T01:55:14.397Z,10.13
2022-11-07T01:57:46.877Z,8.63
2022-11-07T02:00:19.139Z,11.57
2022-11-07T02:02:50.787Z,8.82
2022-11-07T02:05:25.758Z,11.13
2022-11-07T02:07:55.036Z,11.20
2022-11-07T02:10:25.304Z,9.07
2022-11-07T02:12:54.658Z,11.23
2022-11-07T02:15:23.285Z,10.82
2022-11-07T02:17:52.045Z,12.95
2022-11-07T02:20:22.295Z,13.40
2022-11-07T02:22:57.346Z,10.43
2022-11-07T02:25:27.497Z,11.18
2022-11-07T02:28:00.535Z,11.60
2022-11-07T02:30:31.473Z,11.48
2022-11-07T02:33:00.111Z,13.38
2022-11-07T02:35:40.570Z,9.45
2022-11-07T02:38:15.340Z,12.93
2022-11-07T02:40:49.348Z,11.00
2022-11-07T02:43:21.308Z,11.48
2022-11-07T02:45:50.989Z,12.57
2022-11-07T02:48:19.733Z,14.18
2022-11-07T02:50:48.402Z,10.18
2022-11-07T02:53:17.378Z,11.73
2022-11-07T02:55:47.539Z,13.65
2022-11-07T02:58:16.276Z,10.65
2022-11-07T03:00:44.965Z,11.50
2022-11-07T03:03:14.515Z,12.60
2022-11-07T03:05:43.466Z,15.88
2022-11-07T03:08:12.020Z,14.95
2022-11-07T03:10:40.764Z,11.85
2022-11-07T03:13:11.281Z,11.18
2022-11-07T03:15:40.051Z,12.15
2022-11-07T03:18:08.647Z,13.10
2022-11-07T03:20:37.509Z,14.80
2022-11-07T03:23:06.269Z,12.60
2022-11-07T03:25:34.962Z,11.03
2022-11-07T03:28:05.117Z,12.10
2022-11-07T03:30:35.507Z,14.52
2022-11-07T03:33:04.162Z,13.40
2022-11-07T03:35:32.761Z,10.77
2022-11-07T03:38:01.473Z,10.95
2022-11-07T03:40:30.213Z,12.55
2022-11-07T03:42:59.056Z,10.87
2022-11-07T03:45:27.667Z,15.07
2022-11-07T03:47:57.719Z,14.57
2022-11-07T03:50:27.507Z,11.38
2022-11-07T03:52:56.759Z,13.65
2022-11-07T03:55:25.392Z,13.88
2022-11-07T03:57:54.070Z,17.73
2022-11-07T04:00:23.976Z,12.32
2022-11-07T04:02:52.844Z,16.30
2022-11-07T04:05:23.049Z,14.60
2022-11-07T04:07:51.731Z,17.45
2022-11-07T04:10:20.913Z,16.08
2022-11-07T04:13:07.177Z,14.07
2022-11-07T04:15:53.174Z,16.27
2022-11-07T04:18:21.818Z,16.27
2022-11-07T04:20:51.846Z,12.20
2022-11-07T04:23:20.819Z,16.10
2022-11-07T04:26:06.878Z,14.30
2022-11-07T04:28:35.579Z,15.15
2022-11-07T04:31:04.261Z,16.42
2022-11-07T04:33:33.032Z,20.93
2022-11-07T04:36:03.456Z,15.97
2022-11-07T04:38:32.348Z,17.17
2022-11-07T04:41:01.241Z,19.65
2022-11-07T04:43:29.889Z,19.60
2022-11-07T04:45:58.557Z,21.00
2022-11-07T04:48:29.280Z,18.80
2022-11-07T04:50:57.990Z,18.92
2022-11-07T04:53:28.069Z,19.97
2022-11-07T04:55:56.717Z,21.42
2022-11-07T04:58:25.405Z,18.00
2022-11-07T05:00:54.182Z,19.47
2022-11-07T05:03:22.836Z,17.87
2022-11-07T05:05:51.669Z,20.48
2022-11-07T05:08:20.361Z,18.83
2022-11-07T05:10:50.276Z,17.52
2022-11-07T05:13:19.008Z,15.73
2022-11-07T05:15:47.880Z,20.25
2022-11-07T05:18:16.441Z,19.42
2022-11-07T05:20:46.132Z,20.98
2022-11-07T05:25:46.360Z,17.38
2022-11-07T05:28:27.411Z,19.77
2022-11-07T05:31:01.451Z,20.95
2022-11-07T05:33:31.069Z,19.63
2022-11-07T05:38:38.092Z,25.02
2022-11-07T05:41:06.902Z,20.00
2022-11-07T05:43:38.004Z,21.10
2022-11-07T05:46:07.423Z,20.80
2022-11-07T05:48:36.393Z,20.08
2022-11-07T05:51:06.058Z,17.40
2022-11-07T05:53:35.010Z,19.60
2022-11-07T05:56:03.708Z,22.50
2022-11-07T05:58:32.317Z,18.23
2022-11-07T06:01:07.215Z,19.02
2022-11-07T06:03:35.996Z,15.68
2022-11-07T06:06:05.347Z,18.20
2022-11-07T06:08:33.998Z,17.00
2022-11-07T06:11:06.398Z,17.08
2022-11-07T06:13:34.980Z,19.42
2022-11-07T06:16:05.296Z,17.42
2022-11-07T06:18:41.448Z,16.90
2022-11-07T06:21:10.795Z,17.15
2022-11-07T06:23:39.414Z,19.55
2022-11-07T06:26:08.104Z,18.20
2022-11-07T06:28:37.761Z,25.77
2022-11-07T06:33:37.299Z,39.00
2022-11-07T06:38:35.002Z,21.88
2022-11-07T06:41:09.503Z,20.90
2022-11-07T06:43:38.728Z,16.02
2022-11-07T06:46:11.131Z,21.92
2022-11-07T06:48:40.048Z,24.65
2022-11-07T06:51:10.060Z,21.02
2022-11-07T06:53:38.922Z,17.50
2022-11-07T06:56:09.614Z,26.23
2022-11-07T06:58:38.385Z,21.73
2022-11-07T07:01:13.397Z,19.80
2022-11-07T07:03:43.167Z,21.73
2022-11-07T07:06:13.586Z,22.80
2022-11-07T07:08:42.418Z,22.10
2022-11-07T07:11:12.819Z,20.87
2022-11-07T07:13:41.744Z,21.08
2022-11-07T07:16:11.941Z,18.40
2022-11-07T07:18:40.938Z,22.30
2022-11-07T07:21:11.034Z,22.23
2022-11-07T07:23:40.252Z,19.63
2022-11-07T07:26:12.942Z,25.23
2022-11-07T07:28:41.915Z,22.90
2022-11-07T07:31:20.795Z,18.45
2022-11-07T07:33:49.646Z,20.52
2022-11-07T07:36:21.368Z,22.30
2022-11-07T07:38:50.336Z,22.48
2022-11-07T07:41:19.502Z,22.77
2022-11-07T07:43:48.231Z,17.42
2022-11-07T07:46:22.378Z,20.90
2022-11-07T07:48:51.215Z,20.50
2022-11-07T07:51:21.653Z,20.95
2022-11-07T07:53:50.396Z,20.02
2022-11-07T07:56:19.146Z,17.83
2022-11-07T07:58:48.310Z,21.52
2022-11-07T08:01:18.571Z,19.85
2022-11-07T08:04:03.113Z,17.70
2022-11-07T08:06:32.635Z,19.90
2022-11-07T08:09:01.244Z,20.00
2022-11-07T08:11:30.336Z,20.47
2022-11-07T08:14:01.526Z,16.60
2022-11-07T08:16:32.073Z,17.55
2022-11-07T08:19:00.774Z,18.63
2022-11-07T08:21:29.407Z,14.48
2022-11-07T08:23:58.116Z,19.52
2022-11-07T08:26:27.195Z,16.43
2022-11-07T08:28:56.696Z,21.15
2022-11-07T08:31:25.560Z,18.75
2022-11-07T08:33:58.938Z,18.57
2022-11-07T08:36:27.983Z,14.63
2022-11-07T08:38:56.918Z,18.20
2022-11-07T08:41:26.721Z,17.00
2022-11-07T08:43:55.366Z,13.68
2022-11-07T08:46:24.202Z,14.55
2022-11-07T08:48:52.929Z,19.92
2022-11-07T08:51:23.207Z,16.97
2022-11-07T08:53:51.848Z,13.50
2022-11-07T08:56:20.395Z,20.63
2022-11-07T08:58:49.105Z,17.08
2022-11-07T09:01:18.472Z,13.68
2022-11-07T09:03:54.653Z,16.65
2022-11-07T09:06:26.783Z,12.93
2022-11-07T09:08:55.416Z,14.57
2022-11-07T09:11:24.307Z,15.77
2022-11-07T09:13:54.041Z,12.80
2022-11-07T09:16:25.016Z,15.63
2022-11-07T09:18:53.953Z,18.10
2022-11-07T09:21:23.081Z,15.52
2022-11-07T09:23:53.714Z,19.20
2022-11-07T09:26:22.889Z,17.13
2022-11-07T09:28:54.132Z,14.30
2022-11-07T09:31:25.395Z,15.02
2022-11-07T09:33:54.078Z,16.73
2022-11-07T09:36:24.283Z,13.93
2022-11-07T09:38:56.337Z,14.32
2022-11-07T09:41:36.878Z,16.05
2022-11-07T09:44:28.027Z,17.73
2022-11-07T09:47:06.449Z,17.08
2022-11-07T09:49:39.433Z,13.25
2022-11-07T09:52:16.932Z,11.88
2022-11-07T09:54:51.960Z,15.00
2022-11-07T09:57:22.202Z,16.42
2022-11-07T09:59:54.995Z,8.60
2022-11-07T10:02:28.706Z,10.98
2022-11-07T10:04:59.503Z,16.63
2022-11-07T10:07:38.248Z,13.05
2022-11-07T10:10:15.190Z,12.67
2022-11-07T10:13:03.836Z,13.75
2022-11-07T10:15:46.157Z,12.85
2022-11-07T10:18:25.030Z,13.02
2022-11-07T10:21:31.031Z,15.35
2022-11-07T10:24:02.530Z,12.13
2022-11-07T10:26:33.366Z,13.20
2022-11-07T10:29:12.263Z,11.80
2022-11-07T10:31:44.606Z,10.13
2022-11-07T10:34:22.319Z,12.10
2022-11-07T10:36:51.480Z,15.20
2022-11-07T10:39:21.102Z,13.18
2022-11-07T10:44:30.893Z,11.52
2022-11-07T10:46:59.534Z,10.40
2022-11-07T10:49:30.399Z,12.07
2022-11-07T10:52:08.885Z,12.57
2022-11-07T10:54:37.771Z,11.35
2022-11-07T10:57:13.345Z,11.70
2022-11-07T10:59:57.572Z,12.45
2022-11-07T11:02:28.201Z,13.02
2022-11-07T11:05:00.351Z,10.70
2022-11-07T11:07:36.645Z,12.32
2022-11-07T11:10:19.587Z,10.75
2022-11-07T11:12:50.613Z,13.63
2022-11-07T11:15:21.809Z,13.70
2022-11-07T11:18:00.060Z,10.80
2022-11-07T11:20:40.921Z,13.05
2022-11-07T11:23:20.153Z,10.40
2022-11-07T11:25:50.820Z,7.65
2022-11-07T11:28:28.466Z,11.20
2022-11-07T11:31:04.114Z,9.55
2022-11-07T11:33:40.219Z,11.13
2022-11-07T11:36:13.946Z,9.82
2022-11-07T11:38:45.137Z,12.15
2022-11-07T11:41:21.516Z,8.27
2022-11-07T11:43:56.840Z,10.65
2022-11-07T11:46:31.842Z,12.85
2022-11-07T11:49:07.135Z,14.48
2022-11-07T11:51:41.709Z,11.65
2022-11-07T11:54:12.417Z,10.55
2022-11-07T11:56:50.822Z,12.23
2022-11-07T11:59:58.278Z,11.55
2022-11-07T12:02:50.179Z,7.38
2022-11-07T12:05:40.122Z,8.00
2022-11-07T12:08:22.225Z,12.00
2022-11-07T12:11:00.092Z,11.43
2022-11-07T12:13:42.900Z,9.15
2022-11-07T12:16:22.256Z,10.02
2022-11-07T12:18:58.739Z,10.35
2022-11-07T12:21:33.371Z,9.50
2022-11-07T12:24:17.664Z,9.95
2022-11-07T12:26:51.517Z,11.80
2022-11-07T12:29:27.086Z,10.70
2022-11-07T12:32:11.800Z,10.40
2022-11-07T12:34:56.946Z,13.85
2022-11-07T12:37:39.793Z,9.02
2022-11-07T12:40:28.035Z,10.60
2022-11-07T12:43:08.892Z,10.15
2022-11-07T12:45:55.166Z,11.07
2022-11-07T12:49:00.543Z,12.38
2022-11-07T12:51:39.723Z,10.57
2022-11-07T12:54:39.029Z,10.85
2022-11-07T12:57:16.217Z,10.23
2022-11-07T12:59:51.789Z,10.63
2022-11-07T13:02:44.622Z,12.23
2022-11-07T13:05:35.772Z,12.73
2022-11-07T13:08:10.500Z,11.13
2022-11-07T13:10:49.966Z,16.52
2022-11-07T13:13:25.078Z,11.48
2022-11-07T13:16:14.524Z,10.02
2022-11-07T13:18:42.815Z,8.98
2022-11-07T13:21:12.971Z,11.57
2022-11-07T13:23:42.018Z,10.95
2022-11-07T13:26:32.914Z,11.32
2022-11-07T13:29:01.207Z,9.40
2022-11-07T13:31:35.816Z,11.57
2022-11-07T13:34:25.717Z,9.70
2022-11-07T13:37:01.908Z,10.70
2022-11-07T13:39:32.174Z,10.18
2022-11-07T13:42:01.883Z,10.27
2022-11-07T13:47:05.381Z,12.80
2022-11-07T13:49:44.207Z,10.20
2022-11-07T13:52:21.616Z,11.10
2022-11-07T13:54:57.211Z,12.20
2022-11-07T13:57:31.241Z,10.07
2022-11-07T14:00:06.059Z,8.68
2022-11-07T14:02:41.526Z,8.57
2022-11-07T14:05:16.961Z,8.40
2022-11-07T14:07:52.470Z,8.57
2022-11-07T14:10:25.870Z,8.48
2022-11-07T14:12:58.037Z,9.27
2022-11-07T14:15:26.826Z,7.85
2022-11-07T14:17:55.967Z,8.40
2022-11-07T14:20:24.848Z,9.55
2022-11-07T14:22:56.935Z,8.30
2022-11-07T14:25:29.596Z,9.50
2022-11-07T14:27:59.091Z,9.07
2022-11-07T14:30:29.644Z,10.02
2022-11-07T14:33:00.256Z,11.35
2022-11-07T14:35:31.968Z,9.48
2022-11-07T14:38:11.171Z,9.88
2022-11-07T14:40:42.363Z,60.30
2022-11-07T14:43:14.715Z,170.10
2022-11-07T14:48:35.680Z,13.75
2022-11-07T14:51:05.526Z,9.05
2022-11-07T14:53:40.231Z,9.23
2022-11-07T14:56:14.331Z,9.07
2022-11-07T14:58:43.263Z,9.73
2022-11-07T15:01:14.448Z,9.35
2022-11-07T15:03:54.022Z,8.85
2022-11-07T15:06:25.559Z,7.63
2022-11-07T15:09:01.160Z,9.95
2022-11-07T15:11:34.108Z,6.82
2022-11-07T15:14:05.615Z,9.25
2022-11-07T15:16:39.032Z,8.18
2022-11-07T15:19:11.234Z,6.95
2022-11-07T15:21:52.066Z,6.28
2022-11-07T15:24:43.366Z,6.43
2022-11-07T15:27:21.705Z,9.25
2022-11-07T15:29:55.573Z,9.38
2022-11-07T15:32:26.464Z,6.60
2022-11-07T15:35:30.265Z,7.72
2022-11-07T15:37:54.373Z,9.40
2022-11-07T15:40:25.444Z,9.30
2022-11-07T15:42:54.370Z,8.15
2022-11-07T15:45:23.370Z,7.93
2022-11-07T15:47:52.978Z,8.27
2022-11-07T15:52:51.782Z,7.53
2022-11-07T15:55:22.640Z,15.73
2022-11-07T15:57:54.669Z,10.13
2022-11-07T16:00:25.412Z,9.65
2022-11-07T16:02:54.697Z,10.05
2022-11-07T16:05:26.569Z,12.57
2022-11-07T16:07:55.319Z,12.40
2022-11-07T16:10:26.214Z,11.27
2022-11-07T16:12:58.755Z,10.07
2022-11-07T16:15:31.389Z,11.02
2022-11-07T16:18:00.453Z,10.30
2022-11-07T16:20:30.676Z,11.15
2022-11-07T16:22:59.538Z,12.15
2022-11-07T16:25:30.486Z,10.00
2022-11-07T16:28:04.877Z,10.23
2022-11-07T16:30:33.926Z,14.05
2022-11-07T16:33:02.754Z,12.68
2022-11-07T16:35:31.527Z,11.20
2022-11-07T16:38:00.605Z,17.97
2022-11-07T16:40:29.534Z,14.13
2022-11-07T16:42:58.279Z,20.00
2022-11-07T16:45:28.401Z,31.77
2022-11-07T16:47:57.530Z,22.05
2022-11-07T16:50:26.207Z,14.90
2022-11-07T16:52:54.885Z,28.63
2022-11-07T16:55:23.527Z,14.32
2022-11-07T16:57:52.228Z,20.33
2022-11-07T17:00:23.423Z,15.18
2022-11-07T17:02:53.703Z,17.60
2022-11-07T17:05:22.553Z,21.88
2022-11-07T17:07:51.679Z,13.65
2022-11-07T17:10:20.651Z,18.40
2022-11-07T17:12:50.779Z,18.02
2022-11-07T17:15:19.357Z,22.35
2022-11-07T17:17:48.210Z,22.02
2022-11-07T17:20:49.059Z,19.15
2022-11-07T17:23:12.191Z,16.15
2022-11-07T17:25:41.302Z,18.57
2022-11-07T17:28:10.859Z,18.73
2022-11-07T17:30:39.643Z,22.58
2022-11-07T17:33:08.816Z,31.40
2022-11-07T17:35:39.605Z,21.95
2022-11-07T17:38:08.461Z,19.13
2022-11-07T17:40:37.447Z,22.60
2022-11-07T17:43:06.128Z,20.58
2022-11-07T17:45:34.828Z,19.80
2022-11-07T17:48:03.545Z,15.67
2022-11-07T17:50:32.326Z,20.40
2022-11-07T17:53:02.393Z,20.77
2022-11-07T17:55:31.123Z,16.77
2022-11-07T17:58:00.247Z,14.98
2022-11-07T18:00:29.487Z,20.42
2022-11-07T18:02:58.424Z,22.83
2022-11-07T18:05:32.821Z,20.75
2022-11-07T18:08:03.608Z,20.23
2022-11-07T18:10:32.974Z,18.90
2022-11-07T18:13:01.749Z,20.67
2022-11-07T18:15:30.515Z,20.10
2022-11-07T18:17:59.150Z,18.02
2022-11-07T18:20:28.844Z,21.10
2022-11-07T18:22:57.741Z,18.00
2022-11-07T18:25:27.784Z,18.03
2022-11-07T18:27:56.505Z,19.05
2022-11-07T18:30:25.575Z,19.55
2022-11-07T18:32:54.330Z,19.40
2022-11-07T18:35:23.137Z,19.47
2022-11-07T18:37:51.899Z,25.43
2022-11-07T18:40:21.291Z,20.37
2022-11-07T18:42:51.326Z,18.85
2022-11-07T18:45:20.372Z,22.17
2022-11-07T18:47:48.946Z,20.23
2022-11-07T18:50:18.403Z,21.10
2022-11-07T18:52:47.260Z,26.75
2022-11-07T18:55:16.174Z,27.08
2022-11-07T18:57:44.939Z,25.80
2022-11-07T19:00:18.456Z,30.73
2022-11-07T19:02:47.357Z,32.88
2022-11-07T19:05:15.998Z,28.55
2022-11-07T19:07:45.209Z,25.17
2022-11-07T19:10:16.344Z,25.27
2022-11-07T19:12:45.319Z,24.13
2022-11-07T19:15:15.685Z,23.67
2022-11-07T19:17:45.873Z,22.40
2022-11-07T19:20:16.093Z,23.38
2022-11-07T19:22:44.806Z,22.88
2022-11-07T19:25:19.196Z,24.17
2022-11-07T19:27:50.926Z,21.65
2022-11-07T19:30:22.675Z,22.13
2022-11-07T19:32:53.817Z,21.63
2022-11-07T19:35:23.485Z,21.25
2022-11-07T19:40:21.864Z,20.37
2022-11-07T19:42:51.728Z,23.98
2022-11-07T19:45:23.650Z,26.23
2022-11-07T19:47:53.312Z,23.90
2022-11-07T19:50:24.455Z,24.38
2022-11-07T19:52:53.643Z,25.92
2022-11-07T19:55:23.657Z,25.10
2022-11-07T19:57:53.441Z,23.38
2022-11-07T20:00:26.597Z,26.92
2022-11-07T20:02:56.548Z,26.35
2022-11-07T20:08:02.144Z,28.58
2022-11-07T20:10:34.632Z,31.63
2022-11-07T20:13:03.680Z,30.73
2022-11-07T20:15:33.995Z,30.25
2022-11-07T20:18:03.064Z,29.63
2022-11-07T20:20:31.808Z,29.27
2022-11-07T20:23:00.739Z,30.85
2022-11-07T20:25:29.558Z,31.05
2022-11-07T20:27:58.247Z,28.67
2022-11-07T20:30:26.970Z,30.25
2022-11-07T20:32:57.357Z,30.57
2022-11-07T20:35:26.211Z,29.60
2022-11-07T20:37:54.946Z,32.83
2022-11-07T20:40:29.061Z,31.05
2022-11-07T20:42:59.421Z,31.88
2022-11-07T20:45:28.611Z,32.20
2022-11-07T20:48:00.862Z,32.47
2022-11-07T20:50:30.347Z,28.58
2022-11-07T20:55:30.168Z,30.73
2022-11-07T20:58:00.093Z,32.67
2022-11-07T21:00:30.009Z,34.45
2022-11-07T21:03:00.599Z,31.30
2022-11-07T21:05:29.855Z,31.73
2022-11-07T21:07:59.224Z,32.47
2022-11-07T21:10:29.592Z,36.65
2022-11-07T21:12:59.825Z,33.55
2022-11-07T21:15:29.310Z,31.48
2022-11-07T21:17:59.435Z,35.97
2022-11-07T21:20:29.120Z,36.45
2022-11-07T21:22:59.362Z,36.50
2022-11-07T21:25:29.261Z,35.53
2022-11-07T21:30:30.470Z,41.15
2022-11-07T21:33:01.603Z,35.88
2022-11-07T21:35:33.407Z,36.60
2022-11-07T21:38:02.592Z,39.35
2022-11-07T21:40:31.321Z,38.10
2022-11-07T21:43:00.271Z,36.03
2022-11-07T21:45:28.926Z,35.77
2022-11-07T21:47:59.915Z,35.30
2022-11-07T21:50:44.285Z,35.95
2022-11-07T21:53:13.905Z,38.08
2022-11-07T21:55:42.709Z,36.63
2022-11-07T21:58:11.280Z,36.77
2022-11-07T22:00:40.686Z,39.15
2022-11-07T22:03:10.727Z,38.05
2022-11-07T22:05:40.332Z,36.67
2022-11-07T22:08:09.337Z,36.22
2022-11-07T22:10:38.281Z,38.08
2022-11-07T22:13:07.393Z,32.20
2022-11-07T22:15:36.458Z,39.75
2022-11-07T22:18:05.840Z,37.53
2022-11-07T22:20:39.359Z,35.25
2022-11-07T22:23:08.286Z,36.67
2022-11-07T22:25:36.986Z,38.00
2022-11-07T22:28:06.076Z,37.33
2022-11-07T22:30:35.530Z,37.92
2022-11-07T22:33:04.661Z,41.22
2022-11-07T22:35:34.057Z,36.55
2022-11-07T22:38:05.014Z,34.28
2022-11-07T22:40:38.511Z,37.90
2022-11-07T22:43:07.912Z,36.30
2022-11-07T22:45:40.253Z,35.38
2022-11-07T22:48:12.243Z,38.95
2022-11-07T22:50:43.198Z,36.58
2022-11-07T22:53:14.767Z,36.28
2022-11-07T22:55:44.793Z,39.28
2022-11-07T22:58:13.873Z,41.15
2022-11-07T23:00:44.073Z,39.92
2022-11-07T23:03:13.898Z,35.22
2022-11-07T23:05:43.839Z,46.28
2022-11-07T23:10:44.701Z,38.67
2022-11-07T23:13:14.236Z,36.67
2022-11-07T23:18:12.562Z,42.72
2022-11-07T23:20:59.294Z,38.55
2022-11-07T23:23:31.099Z,36.60
2022-11-07T23:26:04.018Z,40.13
2022-11-07T23:28:33.428Z,40.60
2022-11-07T23:31:02.845Z,38.20
2022-11-07T23:33:32.336Z,38.13
2022-11-07T23:36:02.250Z,37.20
2022-11-07T23:38:34.416Z,41.63
2022-11-07T23:41:05.939Z,40.15
2022-11-07T23:43:36.050Z,32.47
2022-11-07T23:46:23.161Z,38.95
2022-11-07T23:49:14.349Z,34.42
2022-11-07T23:51:43.845Z,37.40
2022-11-07T23:54:33.823Z,32.83
2022-11-07T23:57:02.656Z,32.20
2022-11-07T23:59:48.678Z,35.83
